• Join FlightAware (Why Join?)
  • Login
  • US Flag 
09:51PM EST


 

Airport Tracker/Info


-or-


 

Live Flight TrackerFlight Track Log ✈ UCA597 ✈ 04-Nov-2013 ✈ KIAD - KBGM

Flight Track Log - Related Links

Times and Time Zones

All times are in EST time to prevent confusion due to time zone crossing. See the UCA597 flight status page for this flight to view local times or setup timezone preferences in your user account.

Time Position Orientation Groundspeed Altitude Reporting Facility
EST Latitude Longitude Course Direction KTS MPH feet Rate Location/Type
05:40PM 39.0450 -77.4517 352° North 198 228 3,200  Level Washington Center
05:41PM 39.0969 -77.4611 352° North 193 222 5,100 1,680 Climbing Washington Center
05:42PM 39.1489 -77.4678 354° North 193 222 6,600 1,560 Climbing Washington Center
05:43PM 39.2167 -77.4667 North 191 220 8,400 1,380 Climbing Potomac TRACON
05:45PM 39.3092 -77.4828 352° North 194 223 10,700 840 Climbing Washington Center
05:46PM 39.3694 -77.4897 355° North 205 236 11,000 600 Climbing Washington Center
05:47PM 39.4364 -77.4806 North 218 251 12,000 900 Climbing Washington Center
05:48PM 39.5053 -77.4717 North 236 272 12,900 960 Climbing Washington Center
05:50PM 39.6383 -77.4544 North 236 272 14,800 900 Climbing New York Center
05:51PM 39.6969 -77.4544 360° North 241 277 15,600 780 Climbing New York Center
05:52PM 39.7722 -77.4508 North 236 272 16,400 780 Climbing New York Center
05:53PM 39.8325 -77.4511 360° North 236 272 17,200 840 Climbing New York Center
05:54PM 39.9078 -77.4503 360° North 236 272 18,100 540 Climbing New York Center
05:55PM 39.9661 -77.4506 360° North 236 272 18,300 420 Climbing New York Center
05:56PM 40.0414 -77.4469 North 236 272 19,000 300 Climbing New York Center
05:57PM 40.1058 -77.4475 360° North 241 277 19,000  Level New York Center
05:58PM 40.1875 -77.4444 North 261 300 19,000  Level New York Center
05:59PM 40.2583 -77.4458 359° North 275 316 19,000  Level New York Center
06:00PM 40.3439 -77.4433 North 275 316 19,000  Level New York Center
06:01PM 40.4067 -77.4003 28° Northeast 270 311 19,000  Level New York Center
06:02PM 40.4853 -77.3394 30° Northeast 290 334 19,000  Level New York Center
06:03PM 40.5483 -77.2936 29° Northeast 290 334 19,000 -600 Level New York Center
06:04PM 40.6289 -77.2303 31° Northeast 290 334 17,800 -840 Descending New York Center
06:05PM 40.6964 -77.1764 31° Northeast 296 341 17,400 -840 Descending New York Center
06:06PM 40.7681 -77.1228 30° Northeast 301 346 16,200 -1,200 Descending New York Center
06:07PM 40.8397 -77.0661 31° Northeast 301 346 15,000 -600 Descending New York Center
06:08PM 40.9092 -77.0150 29° Northeast 301 346 15,000  Level New York Center
06:09PM 40.9764 -76.9633 30° Northeast 289 333 15,000  Level New York Center
06:10PM 41.0394 -76.9142 30° Northeast 282 325 15,000  Level New York Center
06:11PM 41.1047 -76.8622 31° Northeast 277 319 15,000  Level New York Center
06:12PM 41.1700 -76.8100 31° Northeast 277 319 15,000  Level New York Center
06:13PM 41.2350 -76.7581 31° Northeast 277 319 15,000  Level New York Center
06:14PM 41.3022 -76.7086 29° Northeast 277 319 15,000  Level New York Center
06:15PM 41.3739 -76.6486 32° Northeast 277 319 15,000  Level New York Center
06:16PM 41.4389 -76.5989 30° Northeast 277 319 15,000  Level New York Center
06:17PM 41.5039 -76.5464 31° Northeast 277 319 15,000  Level New York Center
06:18PM 41.5644 -76.4989 30° Northeast 277 319 15,000 -540 Level New York Center
06:19PM 41.6317 -76.4464 30° Northeast 282 325 14,000 -1,260 Descending New York Center
06:20PM 41.7075 -76.3833 32° Northeast 282 325 12,500 -1,500 Descending New York Center
06:21PM 41.7767 -76.3281 31° Northeast 282 325 11,000 -1,500 Descending New York Center
06:22PM 41.8414 -76.2778 30° Northeast 282 325 9,600 -1,500 Descending New York Center
06:23PM 41.8997 -76.2325 30° Northeast 282 325 8,100 -1,500 Descending New York Center
06:24PM 41.9625 -76.1792 32° Northeast 276 318 6,700 -1,500 Descending New York Center
06:25PM 42.0294 -76.1258 31° Northeast 260 299 5,100 -1,440 Descending New York Center
06:26PM 42.0792 -76.0853 31° Northeast 248 285 3,900 -780 Descending New York Center
06:27PM 42.1336 -76.0786 North 211 243 3,600 -180 Descending New York Center
06:28PM 42.1836 -76.0825 357° North 191 220 3,600  Level New York Center
06:29PM 42.2225 -76.0911 351° North 162 186 3,700 -360 Climbing New York Center
06:30PM 42.2469 -76.0594 44° Northeast 134 154 2,900 -600 Descending New York Center
06:31PM 42.2467 -76.0175 90° East 89 102 2,500 -360 Descending New York Center
06:32PM 42.2439 -75.9864 97° East 84 97 2,200 6,240 Descending New York Center
06:33PM 42.2450 -75.9586 87° East 84 97 15,000 12,780 Climbing New York Center
06:35PM 42.2000 -75.9667 North  Level FlightAware Approximate
06:42PM 42.2084 -75.9796 North  Level Estimated
06:43PM 42.2084 -75.9796 North  Level Estimated